sensor_id;sensor_type;location;lat;lon;timestamp;pressure;altitude;pressure_sealevel;temperature;humidity
27202;BME280;14717;46.924;15.474;2023-07-09T00:02:15;98276.47;;;20.49;100.00
27202;BME280;14717;46.924;15.474;2023-07-09T00:04:41;98280.19;;;20.41;100.00
27202;BME280;14717;46.924;15.474;2023-07-09T00:07:29;98274.47;;;20.49;100.00
27202;BME280;14717;46.924;15.474;2023-07-09T00:09:55;98275.25;;;20.38;100.00
27202;BME280;14717;46.924;15.474;2023-07-09T00:12:21;98275.94;;;20.35;100.00
27202;BME280;14717;46.924;15.474;2023-07-09T00:14:47;98269.19;;;20.36;100.00
27202;BME280;14717;46.924;15.474;2023-07-09T00:17:23;98273.22;;;20.27;100.00
27202;BME280;14717;46.924;15.474;2023-07-09T00:19:50;98264.69;;;20.23;100.00
27202;BME280;14717;46.924;15.474;2023-07-09T00:22:18;98264.09;;;20.18;100.00
27202;BME280;14717;46.924;15.474;2023-07-09T00:24:48;98264.75;;;20.15;100.00
27202;BME280;14717;46.924;15.474;2023-07-09T00:27:17;98266.25;;;20.12;100.00
27202;BME280;14717;46.924;15.474;2023-07-09T00:29:44;98255.72;;;20.09;100.00
27202;BME280;14717;46.924;15.474;2023-07-09T00:32:14;98259.97;;;20.15;100.00
27202;BME280;14717;46.924;15.474;2023-07-09T00:34:44;98262.94;;;20.31;100.00
27202;BME280;14717;46.924;15.474;2023-07-09T00:37:20;98258.41;;;20.38;100.00
27202;BME280;14717;46.924;15.474;2023-07-09T00:39:47;98263.34;;;20.41;100.00
27202;BME280;14717;46.924;15.474;2023-07-09T00:42:18;98262.13;;;20.30;98.85
27202;BME280;14717;46.924;15.474;2023-07-09T00:44:51;98273.34;;;20.30;100.00
27202;BME280;14717;46.924;15.474;2023-07-09T00:52:56;98272.41;;;20.06;100.00
27202;BME280;14717;46.924;15.474;2023-07-09T00:55:33;98268.59;;;20.10;100.00
27202;BME280;14717;46.924;15.474;2023-07-09T00:58:06;98274.25;;;20.22;100.00
27202;BME280;14717;46.924;15.474;2023-07-09T01:00:35;98282.00;;;20.25;100.00
27202;BME280;14717;46.924;15.474;2023-07-09T01:03:15;98283.03;;;20.01;100.00
27202;BME280;14717;46.924;15.474;2023-07-09T01:05:42;98280.56;;;19.99;100.00
27202;BME280;14717;46.924;15.474;2023-07-09T01:08:09;98279.50;;;19.92;100.00
27202;BME280;14717;46.924;15.474;2023-07-09T01:10:35;98280.44;;;19.96;100.00
27202;BME280;14717;46.924;15.474;2023-07-09T01:13:01;98279.97;;;19.94;100.00
27202;BME280;14717;46.924;15.474;2023-07-09T01:15:26;98283.13;;;19.92;100.00
27202;BME280;14717;46.924;15.474;2023-07-09T01:17:52;98287.78;;;19.80;100.00
27202;BME280;14717;46.924;15.474;2023-07-09T01:20:19;98292.84;;;19.66;100.00
27202;BME280;14717;46.924;15.474;2023-07-09T01:22:47;98287.50;;;19.53;100.00
27202;BME280;14717;46.924;15.474;2023-07-09T01:25:14;98280.59;;;19.50;100.00
27202;BME280;14717;46.924;15.474;2023-07-09T01:27:43;98286.19;;;19.50;100.00
27202;BME280;14717;46.924;15.474;2023-07-09T01:30:15;98291.19;;;19.45;100.00
27202;BME280;14717;46.924;15.474;2023-07-09T01:32:40;98298.50;;;19.37;100.00
27202;BME280;14717;46.924;15.474;2023-07-09T01:35:11;98300.47;;;19.37;100.00
27202;BME280;14717;46.924;15.474;2023-07-09T01:37:39;98300.94;;;19.39;100.00
27202;BME280;14717;46.924;15.474;2023-07-09T01:40:07;98301.59;;;19.44;100.00
27202;BME280;14717;46.924;15.474;2023-07-09T01:42:35;98290.97;;;19.29;100.00
27202;BME280;14717;46.924;15.474;2023-07-09T01:45:03;98303.97;;;19.25;100.00
27202;BME280;14717;46.924;15.474;2023-07-09T01:47:29;98308.44;;;19.26;100.00
27202;BME280;14717;46.924;15.474;2023-07-09T01:49:55;98302.84;;;19.26;100.00
27202;BME280;14717;46.924;15.474;2023-07-09T01:52:27;98309.09;;;19.23;100.00
27202;BME280;14717;46.924;15.474;2023-07-09T01:54:53;98305.88;;;19.42;100.00
27202;BME280;14717;46.924;15.474;2023-07-09T01:57:19;98304.47;;;19.56;100.00
27202;BME280;14717;46.924;15.474;2023-07-09T01:59:49;98295.53;;;19.63;100.00
27202;BME280;14717;46.924;15.474;2023-07-09T02:02:14;98298.88;;;19.56;100.00
27202;BME280;14717;46.924;15.474;2023-07-09T02:04:50;98299.53;;;19.53;100.00
27202;BME280;14717;46.924;15.474;2023-07-09T02:07:16;98297.72;;;19.57;100.00
27202;BME280;14717;46.924;15.474;2023-07-09T02:09:42;98297.47;;;19.42;100.00
27202;BME280;14717;46.924;15.474;2023-07-09T02:12:09;98303.25;;;19.37;100.00
27202;BME280;14717;46.924;15.474;2023-07-09T02:14:34;98309.31;;;19.19;100.00
27202;BME280;14717;46.924;15.474;2023-07-09T02:17:00;98304.22;;;19.12;100.00
27202;BME280;14717;46.924;15.474;2023-07-09T02:19:25;98301.75;;;19.11;100.00
27202;BME280;14717;46.924;15.474;2023-07-09T02:21:50;98308.81;;;19.17;100.00
27202;BME280;14717;46.924;15.474;2023-07-09T02:24:16;98307.06;;;19.04;100.00
27202;BME280;14717;46.924;15.474;2023-07-09T02:26:41;98317.78;;;19.02;100.00
27202;BME280;14717;46.924;15.474;2023-07-09T02:29:07;98315.13;;;19.05;100.00
27202;BME280;14717;46.924;15.474;2023-07-09T02:31:32;98322.63;;;19.21;100.00
27202;BME280;14717;46.924;15.474;2023-07-09T02:33:59;98325.06;;;19.03;100.00
27202;BME280;14717;46.924;15.474;2023-07-09T02:36:25;98317.47;;;18.95;100.00
27202;BME280;14717;46.924;15.474;2023-07-09T02:38:50;98318.78;;;18.89;100.00
27202;BME280;14717;46.924;15.474;2023-07-09T02:41:16;98320.97;;;18.83;100.00
27202;BME280;14717;46.924;15.474;2023-07-09T02:43:41;98321.16;;;18.78;100.00
27202;BME280;14717;46.924;15.474;2023-07-09T02:46:07;98324.38;;;18.89;100.00
27202;BME280;14717;46.924;15.474;2023-07-09T02:48:32;98329.34;;;18.92;100.00
27202;BME280;14717;46.924;15.474;2023-07-09T02:50:58;98329.34;;;18.92;100.00
27202;BME280;14717;46.924;15.474;2023-07-09T02:53:23;98332.41;;;19.07;100.00
27202;BME280;14717;46.924;15.474;2023-07-09T02:55:49;98327.44;;;19.21;100.00
27202;BME280;14717;46.924;15.474;2023-07-09T02:58:14;98331.94;;;19.05;100.00
27202;BME280;14717;46.924;15.474;2023-07-09T03:00:39;98331.75;;;19.10;100.00
27202;BME280;14717;46.924;15.474;2023-07-09T03:03:05;98333.25;;;19.08;100.00
27202;BME280;14717;46.924;15.474;2023-07-09T03:05:30;98330.28;;;18.96;100.00
27202;BME280;14717;46.924;15.474;2023-07-09T03:07:55;98336.75;;;18.96;100.00
27202;BME280;14717;46.924;15.474;2023-07-09T03:10:21;98335.28;;;18.82;100.00
27202;BME280;14717;46.924;15.474;2023-07-09T03:12:46;98333.78;;;19.01;100.00
27202;BME280;14717;46.924;15.474;2023-07-09T03:15:12;98330.47;;;18.99;100.00
27202;BME280;14717;46.924;15.474;2023-07-09T03:17:37;98331.78;;;18.93;100.00
27202;BME280;14717;46.924;15.474;2023-07-09T03:20:03;98332.28;;;19.04;100.00
27202;BME280;14717;46.924;15.474;2023-07-09T03:22:30;98332.56;;;19.11;100.00
27202;BME280;14717;46.924;15.474;2023-07-09T03:24:55;98332.38;;;19.16;100.00
27202;BME280;14717;46.924;15.474;2023-07-09T03:27:20;98339.50;;;19.13;100.00
27202;BME280;14717;46.924;15.474;2023-07-09T03:29:46;98342.66;;;19.03;100.00
27202;BME280;14717;46.924;15.474;2023-07-09T03:32:11;98349.56;;;18.97;100.00
27202;BME280;14717;46.924;15.474;2023-07-09T03:34:36;98342.81;;;19.07;100.00
27202;BME280;14717;46.924;15.474;2023-07-09T03:37:02;98342.34;;;18.88;100.00
27202;BME280;14717;46.924;15.474;2023-07-09T03:39:27;98348.00;;;18.71;100.00
27202;BME280;14717;46.924;15.474;2023-07-09T03:41:53;98341.59;;;18.62;100.00
27202;BME280;14717;46.924;15.474;2023-07-09T03:44:18;98341.09;;;18.69;100.00
27202;BME280;14717;46.924;15.474;2023-07-09T03:46:43;98334.66;;;18.77;100.00
27202;BME280;14717;46.924;15.474;2023-07-09T03:49:09;98338.09;;;18.82;100.00
27202;BME280;14717;46.924;15.474;2023-07-09T03:51:34;98335.75;;;19.01;100.00
27202;BME280;14717;46.924;15.474;2023-07-09T03:53:59;98342.78;;;19.15;100.00
27202;BME280;14717;46.924;15.474;2023-07-09T03:56:25;98348.09;;;19.08;100.00
27202;BME280;14717;46.924;15.474;2023-07-09T03:58:50;98350.06;;;19.08;100.00
27202;BME280;14717;46.924;15.474;2023-07-09T04:01:15;98343.78;;;19.11;100.00
27202;BME280;14717;46.924;15.474;2023-07-09T04:03:41;98348.19;;;19.20;100.00
27202;BME280;14717;46.924;15.474;2023-07-09T04:06:07;98348.94;;;19.37;100.00
27202;BME280;14717;46.924;15.474;2023-07-09T04:08:32;98341.97;;;19.43;100.00
27202;BME280;14717;46.924;15.474;2023-07-09T04:11:02;98347.59;;;19.43;100.00
27202;BME280;14717;46.924;15.474;2023-07-09T04:13:28;98345.72;;;19.19;100.00
27202;BME280;14717;46.924;15.474;2023-07-09T04:15:56;98345.06;;;19.21;100.00
27202;BME280;14717;46.924;15.474;2023-07-09T04:18:22;98354.75;;;19.32;100.00
27202;BME280;14717;46.924;15.474;2023-07-09T04:20:49;98353.09;;;19.31;100.00
27202;BME280;14717;46.924;15.474;2023-07-09T04:23:15;98353.28;;;19.26;100.00
27202;BME280;14717;46.924;15.474;2023-07-09T04:25:40;98354.88;;;19.36;100.00
27202;BME280;14717;46.924;15.474;2023-07-09T04:28:06;98352.81;;;19.53;100.00
27202;BME280;14717;46.924;15.474;2023-07-09T04:30:31;98354.34;;;19.71;100.00
27202;BME280;14717;46.924;15.474;2023-07-09T04:32:57;98354.78;;;19.81;100.00
27202;BME280;14717;46.924;15.474;2023-07-09T04:35:22;98353.13;;;19.89;100.00
27202;BME280;14717;46.924;15.474;2023-07-09T04:37:49;98358.72;;;19.89;100.00
27202;BME280;14717;46.924;15.474;2023-07-09T04:40:14;98358.00;;;20.00;100.00
27202;BME280;14717;46.924;15.474;2023-07-09T04:42:40;98357.91;;;20.08;100.00
27202;BME280;14717;46.924;15.474;2023-07-09T04:45:08;98363.25;;;20.22;100.00
27202;BME280;14717;46.924;15.474;2023-07-09T04:47:34;98366.31;;;20.29;100.00
27202;BME280;14717;46.924;15.474;2023-07-09T04:50:00;98361.59;;;20.41;100.00
27202;BME280;14717;46.924;15.474;2023-07-09T04:52:25;98372.22;;;20.56;98.14
27202;BME280;14717;46.924;15.474;2023-07-09T04:54:50;98374.81;;;20.61;94.51
27202;BME280;14717;46.924;15.474;2023-07-09T04:57:16;98367.13;;;20.70;94.49
27202;BME280;14717;46.924;15.474;2023-07-09T04:59:42;98372.19;;;20.76;93.76
27202;BME280;14717;46.924;15.474;2023-07-09T05:02:07;98369.75;;;20.87;93.70
27202;BME280;14717;46.924;15.474;2023-07-09T05:04:33;98364.34;;;20.82;94.12
27202;BME280;14717;46.924;15.474;2023-07-09T05:06:59;98362.28;;;20.91;92.69
27202;BME280;14717;46.924;15.474;2023-07-09T05:09:24;98362.06;;;20.84;94.74
27202;BME280;14717;46.924;15.474;2023-07-09T05:11:50;98370.59;;;20.87;95.41
27202;BME280;14717;46.924;15.474;2023-07-09T05:14:16;98366.50;;;20.96;95.10
27202;BME280;14717;46.924;15.474;2023-07-09T05:16:43;98374.47;;;20.94;94.11
27202;BME280;14717;46.924;15.474;2023-07-09T05:19:09;98362.91;;;21.08;92.34
27202;BME280;14717;46.924;15.474;2023-07-09T05:21:34;98366.72;;;20.92;94.06
27202;BME280;14717;46.924;15.474;2023-07-09T05:24:00;98373.78;;;20.97;93.57
27202;BME280;14717;46.924;15.474;2023-07-09T05:26:25;98377.00;;;21.20;90.41
27202;BME280;14717;46.924;15.474;2023-07-09T05:28:51;98377.13;;;21.23;91.97
27202;BME280;14717;46.924;15.474;2023-07-09T05:31:16;98367.47;;;21.44;92.34
27202;BME280;14717;46.924;15.474;2023-07-09T05:33:41;98361.50;;;21.70;90.15
27202;BME280;14717;46.924;15.474;2023-07-09T05:36:08;98369.09;;;21.93;88.52
27202;BME280;14717;46.924;15.474;2023-07-09T05:38:39;98373.78;;;21.89;87.11
27202;BME280;14717;46.924;15.474;2023-07-09T05:41:04;98377.50;;;22.05;86.10
27202;BME280;14717;46.924;15.474;2023-07-09T05:43:30;98373.84;;;22.28;84.36
27202;BME280;14717;46.924;15.474;2023-07-09T05:45:55;98384.41;;;22.31;82.00
27202;BME280;14717;46.924;15.474;2023-07-09T05:48:21;98378.78;;;22.31;83.15
27202;BME280;14717;46.924;15.474;2023-07-09T05:50:48;98380.47;;;22.20;83.21
27202;BME280;14717;46.924;15.474;2023-07-09T05:53:14;98375.97;;;22.31;84.24
27202;BME280;14717;46.924;15.474;2023-07-09T05:55:39;98374.81;;;22.32;84.34
27202;BME280;14717;46.924;15.474;2023-07-09T05:58:04;98379.97;;;22.30;84.89
27202;BME280;14717;46.924;15.474;2023-07-09T06:00:30;98379.97;;;22.30;85.84
27202;BME280;14717;46.924;15.474;2023-07-09T06:02:55;98382.44;;;22.31;85.98
27202;BME280;14717;46.924;15.474;2023-07-09T06:05:21;98377.53;;;22.56;85.71
27202;BME280;14717;46.924;15.474;2023-07-09T06:07:47;98375.69;;;22.48;84.80
27202;BME280;14717;46.924;15.474;2023-07-09T06:10:12;98370.19;;;22.51;86.45
27202;BME280;14717;46.924;15.474;2023-07-09T06:12:39;98381.53;;;22.55;84.31
27202;BME280;14717;46.924;15.474;2023-07-09T06:15:05;98380.78;;;22.69;84.02
27202;BME280;14717;46.924;15.474;2023-07-09T06:17:31;98381.53;;;22.82;83.78
27202;BME280;14717;46.924;15.474;2023-07-09T06:19:56;98384.44;;;22.97;83.75
27202;BME280;14717;46.924;15.474;2023-07-09T06:22:22;98377.72;;;23.02;83.93
27202;BME280;14717;46.924;15.474;2023-07-09T06:24:47;98385.47;;;23.05;83.05
27202;BME280;14717;46.924;15.474;2023-07-09T06:27:12;98389.88;;;23.33;84.22
27202;BME280;14717;46.924;15.474;2023-07-09T06:29:38;98382.28;;;23.64;80.48
27202;BME280;14717;46.924;15.474;2023-07-09T06:32:04;98388.94;;;23.71;79.39
27202;BME280;14717;46.924;15.474;2023-07-09T06:34:30;98385.63;;;23.69;81.09
27202;BME280;14717;46.924;15.474;2023-07-09T06:36:56;98385.09;;;23.95;82.83
27202;BME280;14717;46.924;15.474;2023-07-09T06:39:21;98391.91;;;24.09;77.62
27202;BME280;14717;46.924;15.474;2023-07-09T06:41:48;98389.97;;;24.13;78.35
27202;BME280;14717;46.924;15.474;2023-07-09T06:44:14;98392.88;;;24.16;76.18
27202;BME280;14717;46.924;15.474;2023-07-09T06:46:39;98386.28;;;24.28;76.46
27202;BME280;14717;46.924;15.474;2023-07-09T06:49:04;98389.72;;;24.52;75.50
27202;BME280;14717;46.924;15.474;2023-07-09T06:51:32;98382.03;;;24.71;74.19
27202;BME280;14717;46.924;15.474;2023-07-09T06:53:58;98385.63;;;24.68;75.30
27202;BME280;14717;46.924;15.474;2023-07-09T06:56:23;98389.94;;;24.81;73.39
27202;BME280;14717;46.924;15.474;2023-07-09T06:58:49;98384.09;;;25.08;70.93
27202;BME280;14717;46.924;15.474;2023-07-09T07:01:14;98387.41;;;24.95;70.81
27202;BME280;14717;46.924;15.474;2023-07-09T07:03:40;98391.84;;;25.33;69.46
27202;BME280;14717;46.924;15.474;2023-07-09T07:06:05;98383.81;;;25.35;71.78
27202;BME280;14717;46.924;15.474;2023-07-09T07:08:32;98383.66;;;25.28;72.59
27202;BME280;14717;46.924;15.474;2023-07-09T07:11:00;98388.34;;;25.40;70.24
27202;BME280;14717;46.924;15.474;2023-07-09T07:13:31;98385.94;;;25.42;69.72
27202;BME280;14717;46.924;15.474;2023-07-09T07:15:57;98384.03;;;25.46;67.25
27202;BME280;14717;46.924;15.474;2023-07-09T07:18:22;98382.72;;;25.62;73.55
27202;BME280;14717;46.924;15.474;2023-07-09T07:20:49;98386.84;;;25.46;71.84
27202;BME280;14717;46.924;15.474;2023-07-09T07:23:14;98377.94;;;25.66;67.84
27202;BME280;14717;46.924;15.474;2023-07-09T07:25:41;98375.97;;;25.92;71.66
27202;BME280;14717;46.924;15.474;2023-07-09T07:28:06;98372.88;;;26.01;66.57
27202;BME280;14717;46.924;15.474;2023-07-09T07:30:31;98370.09;;;26.26;63.01
27202;BME280;14717;46.924;15.474;2023-07-09T07:32:57;98378.63;;;26.56;64.39
27202;BME280;14717;46.924;15.474;2023-07-09T07:35:22;98370.69;;;26.68;61.09
27202;BME280;14717;46.924;15.474;2023-07-09T07:37:48;98374.66;;;26.89;61.13
27202;BME280;14717;46.924;15.474;2023-07-09T07:40:14;98372.00;;;26.74;59.59
27202;BME280;14717;46.924;15.474;2023-07-09T07:42:39;98374.25;;;26.91;62.08
27202;BME280;14717;46.924;15.474;2023-07-09T07:45:05;98373.63;;;27.04;57.68
27202;BME280;14717;46.924;15.474;2023-07-09T07:47:32;98383.47;;;27.13;58.68
27202;BME280;14717;46.924;15.474;2023-07-09T07:49:58;98378.88;;;27.38;59.07
27202;BME280;14717;46.924;15.474;2023-07-09T07:52:24;98381.44;;;27.46;58.01
27202;BME280;14717;46.924;15.474;2023-07-09T07:54:51;98381.97;;;27.59;59.10
27202;BME280;14717;46.924;15.474;2023-07-09T07:57:18;98383.97;;;27.55;57.97
27202;BME280;14717;46.924;15.474;2023-07-09T07:59:43;98378.97;;;27.85;58.61
27202;BME280;14717;46.924;15.474;2023-07-09T08:02:14;98370.59;;;27.98;57.67
27202;BME280;14717;46.924;15.474;2023-07-09T08:04:40;98379.38;;;27.86;57.06
27202;BME280;14717;46.924;15.474;2023-07-09T08:07:10;98361.63;;;28.00;56.72
27202;BME280;14717;46.924;15.474;2023-07-09T08:09:36;98362.13;;;28.05;55.00
27202;BME280;14717;46.924;15.474;2023-07-09T08:12:03;98361.53;;;27.86;58.14
27202;BME280;14717;46.924;15.474;2023-07-09T08:14:34;98361.84;;;28.21;58.00
27202;BME280;14717;46.924;15.474;2023-07-09T08:17:00;98365.13;;;28.26;55.44
27202;BME280;14717;46.924;15.474;2023-07-09T08:19:25;98362.59;;;28.14;57.35
27202;BME280;14717;46.924;15.474;2023-07-09T08:21:51;98374.25;;;28.52;55.48
27202;BME280;14717;46.924;15.474;2023-07-09T08:24:16;98356.94;;;28.74;55.19
27202;BME280;14717;46.924;15.474;2023-07-09T08:26:41;98350.88;;;28.86;54.62
27202;BME280;14717;46.924;15.474;2023-07-09T08:29:07;98361.50;;;28.96;52.84
27202;BME280;14717;46.924;15.474;2023-07-09T08:31:32;98360.22;;;28.83;55.47
27202;BME280;14717;46.924;15.474;2023-07-09T08:33:57;98361.09;;;28.94;52.71
27202;BME280;14717;46.924;15.474;2023-07-09T08:36:23;98362.22;;;28.76;52.70
27202;BME280;14717;46.924;15.474;2023-07-09T08:38:48;98363.06;;;28.87;56.03
27202;BME280;14717;46.924;15.474;2023-07-09T08:41:42;98358.22;;;28.87;55.57
27202;BME280;14717;46.924;15.474;2023-07-09T08:49:18;98358.28;;;29.12;55.40
27202;BME280;14717;46.924;15.474;2023-07-09T08:51:47;98358.66;;;29.00;58.16
27202;BME280;14717;46.924;15.474;2023-07-09T08:54:34;98361.50;;;28.93;55.88
27202;BME280;14717;46.924;15.474;2023-07-09T08:57:31;98355.56;;;29.29;57.65
27202;BME280;14717;46.924;15.474;2023-07-09T09:00:29;98359.28;;;29.54;55.69
27202;BME280;14717;46.924;15.474;2023-07-09T09:03:03;98366.44;;;29.13;57.19
27202;BME280;14717;46.924;15.474;2023-07-09T09:05:33;98357.59;;;29.32;55.45
27202;BME280;14717;46.924;15.474;2023-07-09T09:10:56;98357.59;;;29.32;55.84
27202;BME280;14717;46.924;15.474;2023-07-09T09:13:28;98353.59;;;29.71;54.88
27202;BME280;14717;46.924;15.474;2023-07-09T09:15:56;98362.59;;;29.90;54.32
27202;BME280;14717;46.924;15.474;2023-07-09T09:18:26;98360.16;;;29.92;56.93
27202;BME280;14717;46.924;15.474;2023-07-09T09:20:58;98355.66;;;30.12;53.30
27202;BME280;14717;46.924;15.474;2023-07-09T09:23:36;98358.53;;;30.02;51.11
27202;BME280;14717;46.924;15.474;2023-07-09T09:26:18;98352.03;;;29.94;49.59
27202;BME280;14717;46.924;15.474;2023-07-09T09:28:44;98363.44;;;30.25;50.63
27202;BME280;14717;46.924;15.474;2023-07-09T09:31:12;98366.28;;;30.08;48.55
27202;BME280;14717;46.924;15.474;2023-07-09T09:33:42;98363.03;;;30.09;45.74
27202;BME280;14717;46.924;15.474;2023-07-09T09:36:19;98360.56;;;30.39;47.45
27202;BME280;14717;46.924;15.474;2023-07-09T09:38:45;98366.63;;;30.72;47.69
27202;BME280;14717;46.924;15.474;2023-07-09T09:41:22;98368.28;;;30.52;47.26
27202;BME280;14717;46.924;15.474;2023-07-09T09:43:49;98363.38;;;30.67;46.81
27202;BME280;14717;46.924;15.474;2023-07-09T09:46:21;98365.44;;;30.52;45.19
27202;BME280;14717;46.924;15.474;2023-07-09T09:48:49;98363.41;;;30.46;47.08
27202;BME280;14717;46.924;15.474;2023-07-09T09:51:16;98355.69;;;30.47;46.19
27202;BME280;14717;46.924;15.474;2023-07-09T09:53:49;98369.88;;;30.74;45.16
27202;BME280;14717;46.924;15.474;2023-07-09T09:56:20;98362.59;;;30.52;45.85
27202;BME280;14717;46.924;15.474;2023-07-09T09:58:52;98362.50;;;30.94;43.11
27202;BME280;14717;46.924;15.474;2023-07-09T10:01:19;98362.44;;;31.11;42.00
27202;BME280;14717;46.924;15.474;2023-07-09T10:03:47;98359.22;;;31.02;42.98
27202;BME280;14717;46.924;15.474;2023-07-09T10:06:19;98365.69;;;31.10;44.58
27202;BME280;14717;46.924;15.474;2023-07-09T10:09:00;98366.53;;;31.07;49.08
27202;BME280;14717;46.924;15.474;2023-07-09T10:11:44;98364.16;;;30.92;48.29
27202;BME280;14717;46.924;15.474;2023-07-09T10:14:40;98357.94;;;31.10;48.09
27202;BME280;14717;46.924;15.474;2023-07-09T10:17:23;98362.31;;;31.35;47.29
27202;BME280;14717;46.924;15.474;2023-07-09T10:22:54;98363.97;;;31.36;47.93
27202;BME280;14717;46.924;15.474;2023-07-09T10:25:42;98353.75;;;31.39;47.41
27202;BME280;14717;46.924;15.474;2023-07-09T10:28:41;98359.78;;;31.55;45.33
27202;BME280;14717;46.924;15.474;2023-07-09T10:34:03;98344.34;;;31.35;47.23
27202;BME280;14717;46.924;15.474;2023-07-09T10:37:04;98348.31;;;31.58;46.34
27202;BME280;14717;46.924;15.474;2023-07-09T10:39:37;98350.69;;;31.70;42.69
27202;BME280;14717;46.924;15.474;2023-07-09T10:42:03;98346.63;;;31.68;42.98
27202;BME280;14717;46.924;15.474;2023-07-09T10:44:37;98350.47;;;32.05;43.62
27202;BME280;14717;46.924;15.474;2023-07-09T10:47:11;98352.06;;;32.06;41.78
27202;BME280;14717;46.924;15.474;2023-07-09T10:49:41;98338.38;;;31.80;38.60
27202;BME280;14717;46.924;15.474;2023-07-09T10:52:17;98341.72;;;31.72;42.04
27202;BME280;14717;46.924;15.474;2023-07-09T10:55:05;98335.44;;;31.87;42.64
27202;BME280;14717;46.924;15.474;2023-07-09T10:57:57;98344.00;;;31.94;44.63
27202;BME280;14717;46.924;15.474;2023-07-09T11:00:34;98343.25;;;31.83;44.69
27202;BME280;14717;46.924;15.474;2023-07-09T11:03:04;98344.72;;;32.08;42.77
27202;BME280;14717;46.924;15.474;2023-07-09T11:05:31;98342.84;;;32.31;44.07
27202;BME280;14717;46.924;15.474;2023-07-09T11:08:04;98336.28;;;32.34;40.44
27202;BME280;14717;46.924;15.474;2023-07-09T11:10:40;98346.84;;;32.44;41.25
27202;BME280;14717;46.924;15.474;2023-07-09T11:13:15;98345.50;;;32.09;40.93
27202;BME280;14717;46.924;15.474;2023-07-09T11:15:46;98335.09;;;32.28;41.89
27202;BME280;14717;46.924;15.474;2023-07-09T11:18:19;98337.94;;;32.32;38.24
27202;BME280;14717;46.924;15.474;2023-07-09T11:20:46;98344.53;;;32.25;38.31
27202;BME280;14717;46.924;15.474;2023-07-09T11:23:23;98342.94;;;32.24;39.22
27202;BME280;14717;46.924;15.474;2023-07-09T11:26:11;98338.31;;;32.37;41.50
27202;BME280;14717;46.924;15.474;2023-07-09T11:28:40;98339.53;;;32.40;40.09
27202;BME280;14717;46.924;15.474;2023-07-09T11:31:07;98340.16;;;32.58;39.98
27202;BME280;14717;46.924;15.474;2023-07-09T11:33:33;98343.94;;;32.48;39.98
27202;BME280;14717;46.924;15.474;2023-07-09T11:36:11;98345.94;;;32.54;38.75
27202;BME280;14717;46.924;15.474;2023-07-09T11:38:45;98343.19;;;32.40;39.28
27202;BME280;14717;46.924;15.474;2023-07-09T11:44:17;98335.78;;;32.46;38.65
27202;BME280;14717;46.924;15.474;2023-07-09T11:47:20;98332.53;;;32.44;41.23
27202;BME280;14717;46.924;15.474;2023-07-09T11:55:28;98339.47;;;32.80;40.18
27202;BME280;14717;46.924;15.474;2023-07-09T11:58:00;98340.69;;;32.82;38.85
27202;BME280;14717;46.924;15.474;2023-07-09T12:00:42;98331.22;;;32.52;39.39
27202;BME280;14717;46.924;15.474;2023-07-09T12:03:20;98332.47;;;32.51;39.45
27202;BME280;14717;46.924;15.474;2023-07-09T12:05:50;98326.28;;;32.93;39.22
27202;BME280;14717;46.924;15.474;2023-07-09T12:08:17;98324.56;;;32.62;39.22
27202;BME280;14717;46.924;15.474;2023-07-09T12:10:44;98325.34;;;32.66;39.51
27202;BME280;14717;46.924;15.474;2023-07-09T12:13:11;98325.69;;;32.71;39.61
27202;BME280;14717;46.924;15.474;2023-07-09T12:15:39;98325.69;;;32.71;41.30
27202;BME280;14717;46.924;15.474;2023-07-09T12:18:11;98319.31;;;32.94;38.59
27202;BME280;14717;46.924;15.474;2023-07-09T12:20:38;98327.06;;;32.97;41.80
27202;BME280;14717;46.924;15.474;2023-07-09T12:25:49;98318.63;;;32.79;40.24
27202;BME280;14717;46.924;15.474;2023-07-09T12:28:15;98308.66;;;32.94;41.26
27202;BME280;14717;46.924;15.474;2023-07-09T12:30:47;98315.50;;;33.04;39.15
27202;BME280;14717;46.924;15.474;2023-07-09T12:33:22;98315.69;;;32.90;38.75
27202;BME280;14717;46.924;15.474;2023-07-09T12:35:59;98315.44;;;32.74;38.73
27202;BME280;14717;46.924;15.474;2023-07-09T12:38:27;98313.38;;;32.74;40.29
27202;BME280;14717;46.924;15.474;2023-07-09T12:40:54;98315.69;;;32.90;40.72
27202;BME280;14717;46.924;15.474;2023-07-09T12:43:29;98316.09;;;32.88;38.27
27202;BME280;14717;46.924;15.474;2023-07-09T12:45:58;98310.81;;;32.83;38.65
27202;BME280;14717;46.924;15.474;2023-07-09T12:48:27;98312.56;;;32.74;39.98
27202;BME280;14717;46.924;15.474;2023-07-09T12:50:57;98305.16;;;32.76;38.89
27202;BME280;14717;46.924;15.474;2023-07-09T12:53:25;98317.97;;;32.68;38.49
27202;BME280;14717;46.924;15.474;2023-07-09T12:55:55;98309.72;;;32.74;38.02
27202;BME280;14717;46.924;15.474;2023-07-09T12:58:23;98316.03;;;32.55;39.91
27202;BME280;14717;46.924;15.474;2023-07-09T13:00:52;98306.84;;;32.74;37.45
27202;BME280;14717;46.924;15.474;2023-07-09T13:03:28;98296.84;;;32.89;37.91
27202;BME280;14717;46.924;15.474;2023-07-09T13:06:00;98300.47;;;32.93;38.79
27202;BME280;14717;46.924;15.474;2023-07-09T13:08:28;98305.53;;;32.82;38.73
27202;BME280;14717;46.924;15.474;2023-07-09T13:10:54;98312.31;;;32.58;37.09
27202;BME280;14717;46.924;15.474;2023-07-09T13:13:21;98305.72;;;32.65;37.73
27202;BME280;14717;46.924;15.474;2023-07-09T13:15:52;98316.50;;;32.50;37.78
27202;BME280;14717;46.924;15.474;2023-07-09T13:18:22;98306.56;;;32.62;40.79
27202;BME280;14717;46.924;15.474;2023-07-09T13:20:48;98302.69;;;32.38;38.12
27202;BME280;14717;46.924;15.474;2023-07-09T13:23:25;98297.84;;;32.32;38.69
27202;BME280;14717;46.924;15.474;2023-07-09T13:25:51;98303.69;;;32.22;38.08